createdAt,value
2023-12-08T00:02:09.884Z,-1.17
2023-12-08T00:07:15.034Z,-1.21
2023-12-08T00:12:18.485Z,-1.21
2023-12-08T00:17:22.017Z,-1.16
2023-12-08T00:22:25.680Z,-1.16
2023-12-08T00:27:29.187Z,-1.10
2023-12-08T00:32:32.831Z,-1.06
2023-12-08T00:37:36.530Z,-1.00
2023-12-08T00:42:39.940Z,-0.94
2023-12-08T00:47:43.632Z,-0.98
2023-12-08T00:52:48.411Z,-1.03
2023-12-08T00:57:51.927Z,-1.09
2023-12-08T01:02:55.536Z,-1.05
2023-12-08T01:07:59.273Z,-1.08
2023-12-08T01:13:03.852Z,-1.12
2023-12-08T01:18:08.491Z,-1.10
2023-12-08T01:23:12.268Z,-1.14
2023-12-08T01:28:16.707Z,-1.18
2023-12-08T01:33:23.528Z,-1.26
2023-12-08T01:38:27.120Z,-1.35
2023-12-08T01:43:30.532Z,-1.43
2023-12-08T01:48:34.251Z,-1.40
2023-12-08T01:53:37.914Z,-1.37
2023-12-08T01:58:42.569Z,-1.44
2023-12-08T02:03:50.292Z,-1.49
2023-12-08T02:08:54.216Z,-1.49
2023-12-08T02:13:58.101Z,-1.60
2023-12-08T02:19:03.215Z,-1.68
2023-12-08T02:24:07.175Z,-1.62
2023-12-08T02:29:11.173Z,-1.58
2023-12-08T02:34:19.980Z,-1.57
2023-12-08T02:39:25.643Z,-1.58
2023-12-08T02:44:29.233Z,-1.58
2023-12-08T02:49:33.020Z,-1.62
2023-12-08T02:54:36.667Z,-1.72
2023-12-08T02:59:40.238Z,-1.81
2023-12-08T03:04:44.074Z,-1.88
2023-12-08T03:09:48.141Z,-1.88
2023-12-08T03:14:52.001Z,-1.92
2023-12-08T03:19:55.544Z,-1.93
2023-12-08T03:24:59.203Z,-1.97
2023-12-08T03:30:02.952Z,-1.98
2023-12-08T03:35:07.456Z,-2.00
2023-12-08T03:40:10.978Z,-2.08
2023-12-08T03:45:14.455Z,-2.10
2023-12-08T03:50:18.108Z,-2.13
2023-12-08T03:55:22.444Z,-2.12
2023-12-08T04:00:25.860Z,-2.26
2023-12-08T04:05:29.726Z,-2.43
2023-12-08T04:10:33.478Z,-2.54
2023-12-08T04:15:37.122Z,-2.64
2023-12-08T04:20:40.500Z,-2.62
2023-12-08T04:25:44.476Z,-2.64
2023-12-08T04:30:47.893Z,-2.67
2023-12-08T04:35:51.520Z,-2.71
2023-12-08T04:40:55.124Z,-2.74
2023-12-08T04:45:58.956Z,-2.77
2023-12-08T04:51:02.526Z,-2.84
2023-12-08T04:56:06.506Z,-2.88
2023-12-08T05:01:16.681Z,-2.92
2023-12-08T05:06:23.724Z,-2.93
2023-12-08T05:11:27.284Z,-2.97
2023-12-08T05:16:33.569Z,-2.93
2023-12-08T05:21:37.091Z,-2.91
2023-12-08T05:26:40.578Z,-2.95
2023-12-08T05:31:44.116Z,-2.98
2023-12-08T05:36:47.534Z,-2.99
2023-12-08T05:41:50.990Z,-2.97
2023-12-08T05:46:54.460Z,-3.01
2023-12-08T05:51:58.077Z,-3.05
2023-12-08T05:57:02.421Z,-3.07
2023-12-08T06:02:05.997Z,-3.12
2023-12-08T06:07:09.877Z,-3.13
2023-12-08T06:12:13.656Z,-3.18
2023-12-08T06:17:17.921Z,-3.20
2023-12-08T06:22:21.319Z,-3.17
2023-12-08T06:27:25.228Z,-3.24
2023-12-08T06:32:30.226Z,-3.22
2023-12-08T06:37:33.721Z,-3.20
2023-12-08T06:42:37.351Z,-3.25
2023-12-08T06:47:41.029Z,-3.19
2023-12-08T06:52:45.466Z,-3.22
2023-12-08T06:57:48.617Z,-3.26
2023-12-08T07:03:00.892Z,-3.24
2023-12-08T07:08:04.956Z,-3.25
2023-12-08T07:13:08.580Z,-3.19
2023-12-08T07:18:12.191Z,-3.21
2023-12-08T07:23:15.934Z,-3.20
2023-12-08T07:28:19.433Z,-3.22
2023-12-08T07:33:23.338Z,-3.14
2023-12-08T07:38:27.086Z,-3.06
2023-12-08T07:43:30.514Z,-3.04
2023-12-08T07:48:34.174Z,-3.04
2023-12-08T07:53:37.960Z,-2.90
2023-12-08T07:58:41.559Z,-2.71
2023-12-08T08:03:45.558Z,-2.69
2023-12-08T08:08:49.237Z,-2.68
2023-12-08T08:13:52.829Z,-2.58
2023-12-08T08:18:56.423Z,-2.61
2023-12-08T08:24:00.076Z,-2.66
2023-12-08T08:29:03.995Z,-2.55
2023-12-08T08:34:07.877Z,-2.52
2023-12-08T08:39:11.803Z,-2.44
2023-12-08T08:44:15.879Z,-2.38
2023-12-08T08:49:20.410Z,-2.38
2023-12-08T08:54:23.835Z,-2.21
2023-12-08T08:59:27.470Z,-2.04
2023-12-08T09:04:31.439Z,-1.79
2023-12-08T09:09:35.049Z,-1.68
2023-12-08T09:14:39.761Z,-1.67
2023-12-08T09:19:43.431Z,-1.78
2023-12-08T09:24:46.926Z,-1.81
2023-12-08T09:29:56.274Z,-1.79
2023-12-08T09:34:59.789Z,-1.72
2023-12-08T09:40:04.004Z,-1.59
2023-12-08T09:45:11.767Z,-1.49
2023-12-08T09:50:16.843Z,-1.42
2023-12-08T09:55:21.925Z,-1.45
2023-12-08T10:00:25.898Z,-1.61
2023-12-08T10:05:29.478Z,-1.80
2023-12-08T10:10:33.094Z,-1.95
2023-12-08T10:15:36.607Z,-2.20
2023-12-08T10:20:40.058Z,-2.17
2023-12-08T10:25:43.748Z,-2.23
2023-12-08T10:30:47.919Z,-2.38
2023-12-08T10:35:52.105Z,-2.36
2023-12-08T10:40:55.601Z,-2.27
2023-12-08T10:45:59.162Z,-2.25
2023-12-08T10:51:03.197Z,-2.10
2023-12-08T10:56:10.606Z,-2.02
2023-12-08T11:01:16.006Z,-1.80
2023-12-08T11:06:24.981Z,-1.64
2023-12-08T11:11:31.304Z,-1.45
2023-12-08T11:16:53.570Z,-1.39
2023-12-08T11:21:57.910Z,-1.37
2023-12-08T11:27:19.052Z,-1.30
2023-12-08T11:32:38.087Z,-1.19
2023-12-08T11:37:42.478Z,-1.10
2023-12-08T11:42:48.903Z,-0.89
2023-12-08T11:47:52.857Z,-0.92
2023-12-08T11:52:56.424Z,-1.05
2023-12-08T11:58:09.119Z,-0.99
2023-12-08T12:03:13.827Z,-1.08
2023-12-08T12:08:18.411Z,-1.26
2023-12-08T12:13:28.118Z,-1.48
2023-12-08T12:18:31.921Z,-1.56
2023-12-08T12:23:35.526Z,-1.49
2023-12-08T12:28:38.921Z,-1.60
2023-12-08T12:33:48.667Z,-1.76
2023-12-08T12:38:53.855Z,-1.87
2023-12-08T12:44:02.921Z,-1.86
2023-12-08T12:49:06.433Z,-1.87
2023-12-08T12:54:10.627Z,-1.87
2023-12-08T12:59:13.905Z,-1.74
2023-12-08T13:04:17.457Z,-1.59
2023-12-08T13:09:30.529Z,-1.58
2023-12-08T13:14:34.450Z,-1.71
2023-12-08T13:19:38.075Z,-1.80
2023-12-08T13:24:41.563Z,-1.77
2023-12-08T13:29:45.028Z,-1.71
2023-12-08T13:34:48.578Z,-1.62
2023-12-08T13:39:51.992Z,-1.67
2023-12-08T13:44:55.716Z,-1.70
2023-12-08T13:49:59.099Z,-1.67
2023-12-08T13:55:03.410Z,-1.78
2023-12-08T14:00:07.371Z,-1.86
2023-12-08T14:05:11.898Z,-1.93
2023-12-08T14:10:15.542Z,-1.92
2023-12-08T14:15:19.102Z,-1.91
2023-12-08T14:20:22.747Z,-1.93
2023-12-08T14:25:26.071Z,-2.08
2023-12-08T14:30:29.434Z,-2.15
2023-12-08T14:35:33.261Z,-2.13
2023-12-08T14:40:37.256Z,-2.16
2023-12-08T14:45:40.773Z,-2.22
2023-12-08T14:50:45.064Z,-2.30
2023-12-08T14:55:59.073Z,-2.29
2023-12-08T15:01:04.223Z,-2.29
2023-12-08T15:06:07.906Z,-2.32
2023-12-08T15:11:11.519Z,-2.28
2023-12-08T15:16:15.200Z,-2.28
2023-12-08T15:21:22.925Z,-2.23
2023-12-08T15:26:27.030Z,-2.21
2023-12-08T15:31:30.586Z,-2.25
2023-12-08T15:36:35.582Z,-2.25
2023-12-08T15:41:45.364Z,-2.22
2023-12-08T15:46:48.841Z,-2.26
2023-12-08T15:51:54.357Z,-2.28
2023-12-08T16:02:18.692Z,-2.31
2023-12-08T16:07:26.008Z,-2.32
2023-12-08T16:12:30.014Z,-2.38
2023-12-08T16:17:34.000Z,-2.40
2023-12-08T16:22:39.257Z,-2.44
2023-12-08T16:27:43.929Z,-2.42
2023-12-08T16:33:06.277Z,-2.40
2023-12-08T16:38:09.931Z,-2.39
2023-12-08T16:43:13.454Z,-2.37
2023-12-08T16:48:18.228Z,-2.41
2023-12-08T16:53:23.884Z,-2.43
2023-12-08T16:58:28.046Z,-2.45
2023-12-08T17:03:32.135Z,-2.49
2023-12-08T17:08:35.553Z,-2.49
2023-12-08T17:13:39.384Z,-2.53
2023-12-08T17:18:42.954Z,-2.54
2023-12-08T17:23:47.121Z,-2.49
2023-12-08T17:28:50.477Z,-2.47
2023-12-08T17:33:57.045Z,-2.49
2023-12-08T17:39:05.378Z,-2.50
2023-12-08T17:44:08.802Z,-2.54
2023-12-08T17:49:12.355Z,-2.50
2023-12-08T17:54:15.964Z,-2.42
2023-12-08T17:59:20.413Z,-2.34
2023-12-08T18:04:23.869Z,-2.32
2023-12-08T18:09:27.499Z,-2.29
2023-12-08T18:14:31.050Z,-2.27
2023-12-08T18:19:34.593Z,-2.24
2023-12-08T18:24:38.571Z,-2.21
2023-12-08T18:29:42.265Z,-2.18
2023-12-08T18:34:45.860Z,-2.20
2023-12-08T18:39:49.445Z,-2.17
2023-12-08T18:44:53.808Z,-2.17
2023-12-08T18:49:57.585Z,-2.20
2023-12-08T18:55:01.589Z,-2.23
2023-12-08T19:00:10.349Z,-2.30
2023-12-08T19:05:14.036Z,-2.32
2023-12-08T19:10:17.981Z,-2.31
2023-12-08T19:15:22.049Z,-2.28
2023-12-08T19:20:27.201Z,-2.25
2023-12-08T19:25:30.716Z,-2.23
2023-12-08T19:30:35.139Z,-2.28
2023-12-08T19:35:39.261Z,-2.31
2023-12-08T19:40:43.383Z,-2.36
2023-12-08T19:45:49.438Z,-2.36
2023-12-08T19:50:53.050Z,-2.33
2023-12-08T19:55:56.816Z,-2.27
2023-12-08T20:01:00.499Z,-2.24
2023-12-08T20:06:04.389Z,-2.28
2023-12-08T20:11:08.403Z,-2.27
2023-12-08T20:16:12.520Z,-2.21
2023-12-08T20:21:16.039Z,-2.21
2023-12-08T20:26:20.501Z,-2.22
2023-12-08T20:31:23.947Z,-2.16
2023-12-08T20:36:27.638Z,-2.07
2023-12-08T20:41:31.850Z,-2.09
2023-12-08T20:46:35.835Z,-2.11
2023-12-08T20:51:39.437Z,-2.12
2023-12-08T20:56:42.973Z,-2.12
2023-12-08T21:01:46.386Z,-2.11
2023-12-08T21:06:52.034Z,-2.10
2023-12-08T21:11:56.955Z,-2.10
2023-12-08T21:17:00.374Z,-2.10
2023-12-08T21:22:05.172Z,-2.11
2023-12-08T21:27:09.293Z,-2.15
2023-12-08T21:32:13.386Z,-2.12
2023-12-08T21:37:17.403Z,-2.20
2023-12-08T21:42:22.008Z,-2.20
2023-12-08T21:47:25.757Z,-2.15
2023-12-08T21:52:29.789Z,-2.17
2023-12-08T21:57:33.188Z,-2.20
2023-12-08T22:02:36.554Z,-2.17
2023-12-08T22:07:39.871Z,-2.17
2023-12-08T22:12:43.308Z,-2.22
2023-12-08T22:17:46.834Z,-2.25
2023-12-08T22:22:50.188Z,-2.27
2023-12-08T22:27:53.535Z,-2.29
2023-12-08T22:32:57.016Z,-2.33
2023-12-08T22:38:00.431Z,-2.32
2023-12-08T22:43:03.819Z,-2.29
2023-12-08T22:48:07.186Z,-2.24
2023-12-08T22:53:10.793Z,-2.17
2023-12-08T22:58:15.061Z,-2.21
2023-12-08T23:03:19.018Z,-2.17
2023-12-08T23:08:22.892Z,-2.23
2023-12-08T23:13:26.602Z,-2.26
2023-12-08T23:18:30.082Z,-2.25
2023-12-08T23:23:33.625Z,-2.22
2023-12-08T23:28:37.059Z,-2.20
2023-12-08T23:33:40.598Z,-2.23
2023-12-08T23:38:44.133Z,-2.29
2023-12-08T23:43:48.642Z,-2.33
2023-12-08T23:48:57.703Z,-2.34
2023-12-08T23:54:01.288Z,-2.30
2023-12-08T23:59:05.080Z,-2.32
